Time;durP1;ratioP1;P1;durP2;ratioP2;P2;SDS_P1;SDS_P2;PMS_P1;PMS_P2;Temp;Humidity;BMP_temperature;BMP_pressure;BME280_temperature;BME280_humidity;BME280_pressure;Samples;Min_cycle;Max_cycle;Signal;HPM_P1;HPM_P2
2023/07/01 00:02:00;;;;;;;10.33;6.43;;;18.90;98.50;;;19.23;64.84;94648.81;4989963;28;20847;-73
2023/07/01 00:04:28;;;;;;;7.53;6.33;;;18.80;98.70;;;19.16;64.44;94643.47;4986837;28;20509;-59
2023/07/01 00:06:56;;;;;;;7.00;6.40;;;18.80;98.70;;;19.12;64.99;94644.88;4987368;28;20492;-59
2023/07/01 00:09:27;;;;;;;8.57;6.20;;;18.70;99.20;;;19.08;65.22;94643.63;4992627;28;20564;-72
2023/07/01 00:11:54;;;;;;;17.00;6.00;;;18.70;99.80;;;19.06;65.44;94644.84;4990226;28;20504;-58
2023/07/01 00:14:22;;;;;;;10.47;6.17;;;18.60;99.90;;;19.05;66.43;94640.53;4990760;28;20466;-59
2023/07/01 00:16:49;;;;;;;5.50;4.93;;;18.70;99.90;;;19.06;66.65;94642.19;4990387;28;20455;-59
2023/07/01 00:19:17;;;;;;;5.50;4.93;;;18.60;99.90;;;19.06;66.07;94643.00;4990161;28;20489;-59
2023/07/01 00:21:44;;;;;;;9.33;4.30;;;18.60;99.90;;;19.06;66.07;94642.19;4989978;28;20570;-58
2023/07/01 00:24:12;;;;;;;4.30;3.90;;;18.60;99.90;;;19.05;65.52;94645.88;4990291;28;20521;-73
2023/07/01 00:26:40;;;;;;;4.60;4.30;;;18.60;99.90;;;19.06;65.73;94642.19;4988151;28;20457;-61
2023/07/01 00:29:08;;;;;;;7.73;4.27;;;18.70;99.90;;;19.06;65.33;94636.84;4990768;28;20563;-58
2023/07/01 00:31:35;;;;;;;4.60;4.23;;;18.60;99.90;;;19.06;65.07;94642.19;4990680;28;20895;-72
2023/07/01 00:34:02;;;;;;;4.70;4.33;;;18.60;99.90;;;19.04;65.22;94645.06;4989492;28;20990;-59
2023/07/01 00:36:29;;;;;;;5.97;4.43;;;18.60;99.90;;;19.04;65.25;94644.22;4986745;28;20444;-59
2023/07/01 00:38:57;;;;;;;4.63;4.33;;;18.60;99.90;;;19.00;65.56;94643.78;4989332;28;20922;-73
2023/07/01 00:41:24;;;;;;;6.20;4.00;;;18.60;99.90;;;18.95;65.61;94644.38;4990321;28;20874;-58
2023/07/01 00:43:52;;;;;;;4.73;4.30;;;18.50;99.90;;;18.93;65.49;94638.44;4990110;28;20812;-73
2023/07/01 00:46:21;;;;;;;4.17;3.80;;;18.50;99.90;;;18.92;65.23;94634.13;4989818;28;20532;-72
2023/07/01 00:48:49;;;;;;;10.13;4.40;;;18.50;99.90;;;18.92;65.63;94636.78;4990229;28;20567;-73
2023/07/01 00:51:16;;;;;;;4.10;3.90;;;18.50;99.90;;;18.90;65.35;94628.16;4991353;28;20520;-73
2023/07/01 00:53:43;;;;;;;5.03;4.10;;;18.50;99.90;;;18.88;65.94;94630.19;4993891;28;20455;-57
2023/07/01 00:56:10;;;;;;;4.90;3.80;;;18.50;99.90;;;18.85;65.55;94635.91;4990061;28;20560;-58
2023/07/01 00:58:37;;;;;;;4.80;4.50;;;18.50;99.90;;;18.85;65.86;94629.78;4989826;28;20482;-58
2023/07/01 01:01:10;;;;;;;9.53;4.73;;;18.40;99.90;;;18.82;65.56;94630.94;4988479;28;20482;-58
2023/07/01 01:03:42;;;;;;;4.70;4.40;;;18.40;99.90;;;18.80;65.40;94641.78;4988378;28;20450;-59
2023/07/01 01:06:16;;;;;;;12.10;4.23;;;18.40;99.90;;;18.80;66.39;94643.66;4985200;28;20470;-74
2023/07/01 01:08:51;;;;;;;5.13;4.40;;;18.40;99.90;;;18.77;65.71;94638.72;4988242;28;20458;-58
2023/07/01 01:11:18;;;;;;;4.47;4.10;;;18.40;99.90;;;18.76;66.68;94645.06;4986238;28;20480;-58
2023/07/01 01:13:45;;;;;;;4.13;3.83;;;18.40;99.90;;;18.72;66.60;94636.63;4988198;28;20454;-59
2023/07/01 01:16:14;;;;;;;6.50;4.30;;;18.30;99.90;;;18.69;66.22;94633.56;4988683;28;20484;-74
2023/07/01 01:18:42;;;;;;;6.20;4.20;;;18.30;99.90;;;18.68;66.17;94632.72;4987870;28;20990;-73
2023/07/01 01:21:09;;;;;;;4.43;4.03;;;18.30;99.90;;;18.66;66.54;94631.28;4987695;28;20474;-59
2023/07/01 01:23:40;;;;;;;4.50;4.10;;;18.20;99.90;;;18.66;66.69;94628.63;4988390;28;20462;-74
2023/07/01 01:26:10;;;;;;;4.70;4.20;;;18.20;99.90;;;18.63;66.15;94627.16;5000204;28;20478;-58
2023/07/01 01:28:39;;;;;;;7.27;4.50;;;18.20;99.90;;;18.60;66.91;94623.03;4989395;28;20982;-59
2023/07/01 01:31:06;;;;;;;5.27;4.87;;;18.20;99.90;;;18.59;67.28;94626.72;4987432;28;20540;-57
2023/07/01 01:33:33;;;;;;;7.50;4.53;;;18.10;99.90;;;18.58;66.82;94641.06;4989046;28;20450;-58
2023/07/01 01:36:09;;;;;;;10.07;4.67;;;18.20;99.90;;;18.55;66.71;94620.13;4987381;28;20882;-58
2023/07/01 01:38:36;;;;;;;10.63;4.70;;;18.20;99.90;;;18.53;66.22;94621.34;4984940;28;20512;-72
2023/07/01 01:41:07;;;;;;;8.63;4.43;;;18.10;99.90;;;18.47;66.47;94617.63;4987094;28;20478;-58
2023/07/01 01:43:42;;;;;;;4.83;4.53;;;18.00;99.90;;;18.44;66.76;94610.03;4987612;28;20486;-58
2023/07/01 01:46:09;;;;;;;4.77;4.23;;;18.00;99.90;;;18.40;66.80;94606.09;4987270;28;20529;-72
2023/07/01 01:48:37;;;;;;;6.53;4.53;;;18.00;99.90;;;18.36;66.08;94608.34;4987674;28;20454;-71
2023/07/01 01:51:04;;;;;;;7.23;4.70;;;18.00;99.90;;;18.34;66.91;94612.22;4987865;28;20478;-71
2023/07/01 01:53:32;;;;;;;11.37;5.03;;;18.00;99.90;;;18.31;66.60;94612.59;4988156;28;20542;-72
2023/07/01 01:55:59;;;;;;;7.53;4.57;;;17.90;99.90;;;18.26;66.50;94603.38;4987686;28;20471;-58
2023/07/01 01:58:26;;;;;;;4.53;4.23;;;17.90;99.90;;;18.27;66.70;94607.66;4987870;28;20462;-59
2023/07/01 02:00:55;;;;;;;6.13;4.47;;;17.90;99.90;;;18.25;66.62;94611.56;4952021;28;1227882;-71
2023/07/01 02:03:22;;;;;;;8.73;4.47;;;17.90;99.90;;;18.25;67.23;94614.22;4992973;28;20306;-58
2023/07/01 02:05:49;;;;;;;5.10;4.70;;;17.80;99.90;;;18.24;66.61;94618.69;4988258;28;21091;-72
2023/07/01 02:08:17;;;;;;;8.40;4.80;;;17.80;99.90;;;18.22;67.13;94612.75;4989295;28;20450;-58
2023/07/01 02:10:44;;;;;;;10.70;5.80;;;17.90;99.90;;;18.22;66.69;94614.59;4988640;28;20482;-57
2023/07/01 02:13:11;;;;;;;5.17;3.90;;;17.80;99.90;;;18.21;67.28;94611.09;4989479;28;20454;-73
2023/07/01 02:15:39;;;;;;;5.73;4.27;;;17.80;99.90;;;18.20;66.86;94609.47;4990923;28;21150;-74
2023/07/01 02:18:07;;;;;;;4.43;4.03;;;17.80;99.90;;;18.19;67.00;94615.81;4987873;28;20442;-71
2023/07/01 02:20:35;;;;;;;3.40;3.30;;;17.80;99.90;;;18.17;67.00;94617.84;4988047;28;20517;-71
2023/07/01 02:23:02;;;;;;;6.87;4.87;;;17.80;99.90;;;18.15;67.85;94619.84;4987966;28;20831;-58
2023/07/01 02:25:29;;;;;;;4.20;3.90;;;17.70;99.90;;;18.12;67.19;94614.91;4987945;28;20529;-73
2023/07/01 02:27:57;;;;;;;7.47;4.30;;;17.70;99.90;;;18.10;67.06;94609.78;4987781;28;21002;-73
2023/07/01 02:30:25;;;;;;;4.73;4.03;;;17.70;99.90;;;18.08;67.30;94611.81;4987479;28;20904;-57
2023/07/01 02:32:52;;;;;;;7.10;4.77;;;17.70;99.90;;;18.06;67.55;94610.38;4987859;28;20870;-72
2023/07/01 02:35:21;;;;;;;9.27;4.63;;;17.70;99.90;;;18.02;66.85;94614.44;4988155;28;20471;-58
2023/07/01 02:37:48;;;;;;;5.20;4.80;;;17.70;99.90;;;17.97;67.83;94616.84;4989288;28;21056;-72
2023/07/01 02:40:16;;;;;;;4.33;4.07;;;17.60;99.90;;;17.95;67.98;94619.69;4986209;28;20479;-60
2023/07/01 02:42:43;;;;;;;4.87;4.43;;;17.60;99.90;;;17.95;68.25;94624.19;4987346;28;20521;-59
2023/07/01 02:45:11;;;;;;;5.17;4.67;;;17.60;99.90;;;17.97;68.28;94627.47;4990076;28;20483;-58
2023/07/01 02:47:38;;;;;;;5.77;4.60;;;17.60;99.90;;;17.98;68.31;94623.81;4986941;28;20470;-59
2023/07/01 02:50:07;;;;;;;7.43;5.03;;;17.60;99.90;;;17.99;68.36;94625.47;4987544;28;21071;-58
2023/07/01 02:52:36;;;;;;;5.23;4.60;;;17.60;99.90;;;17.99;68.27;94628.13;4987397;28;20462;-73
2023/07/01 02:55:03;;;;;;;6.83;3.97;;;17.60;99.90;;;17.99;67.98;94631.59;4987664;28;20487;-61
2023/07/01 02:57:30;;;;;;;4.50;4.20;;;17.60;99.90;;;18.00;68.56;94627.94;4987032;28;20462;-58
2023/07/01 02:59:59;;;;;;;4.50;4.20;;;17.60;99.90;;;17.99;68.54;94639.59;4987407;28;21026;-71
2023/07/01 03:02:27;;;;;;;6.70;4.47;;;17.60;99.90;;;17.99;68.43;94644.91;4987789;28;20508;-71
2023/07/01 03:04:54;;;;;;;5.80;5.30;;;17.60;99.90;;;17.98;68.22;94640.59;4987666;28;20971;-57
2023/07/01 03:07:21;;;;;;;4.93;4.13;;;17.60;99.90;;;17.99;68.17;94646.75;4987695;28;20450;-73
2023/07/01 03:09:50;;;;;;;4.83;4.20;;;17.60;99.90;;;18.00;68.56;94640.41;4987202;28;20475;-72
2023/07/01 03:12:17;;;;;;;5.73;5.37;;;17.60;99.90;;;17.99;68.22;94636.13;4985025;28;20462;-59
2023/07/01 03:14:44;;;;;;;4.57;4.27;;;17.60;99.90;;;18.00;68.98;94640.41;4987052;28;20995;-72
2023/07/01 03:17:11;;;;;;;6.53;4.70;;;17.60;99.90;;;18.01;68.73;94628.75;4986575;28;21403;-59
2023/07/01 03:19:40;;;;;;;5.73;5.17;;;17.60;99.90;;;18.04;68.30;94631.84;4987958;28;20503;-57
2023/07/01 03:22:07;;;;;;;4.47;4.17;;;17.60;99.90;;;18.06;68.90;94631.66;4986624;28;20514;-72
2023/07/01 03:24:35;;;;;;;4.93;4.63;;;17.60;99.90;;;18.07;68.70;94638.63;4987690;28;20478;-74
2023/07/01 03:27:06;;;;;;;5.10;4.70;;;17.70;99.90;;;18.09;68.92;94634.78;4987008;28;20970;-74
2023/07/01 03:29:33;;;;;;;5.90;4.87;;;17.70;99.90;;;18.13;68.92;94626.41;4988451;28;20983;-73
2023/07/01 03:32:03;;;;;;;5.00;4.60;;;17.70;99.90;;;18.16;68.71;94631.34;4988729;28;20560;-59
2023/07/01 03:34:30;;;;;;;7.00;4.97;;;17.80;99.90;;;18.18;68.36;94622.13;4986299;28;20533;-62
2023/07/01 03:36:58;;;;;;;7.43;4.40;;;17.80;99.90;;;18.21;68.21;94627.06;4983772;28;20520;-56
2023/07/01 03:39:25;;;;;;;7.60;5.70;;;17.80;99.90;;;18.23;68.50;94626.88;4987734;28;20501;-58
2023/07/01 03:41:52;;;;;;;11.53;5.60;;;17.80;99.90;;;18.28;68.33;94635.13;4986349;28;20451;-58
2023/07/01 03:44:22;;;;;;;5.20;4.80;;;17.90;99.90;;;18.32;68.44;94641.69;4989495;28;20479;-73
2023/07/01 03:46:49;;;;;;;15.50;5.57;;;17.90;99.90;;;18.35;68.11;94635.16;4987009;28;20466;-73
2023/07/01 03:49:16;;;;;;;7.50;5.90;;;17.90;99.90;;;18.40;68.27;94632.75;4987080;28;20478;-61
2023/07/01 03:51:44;;;;;;;10.87;5.77;;;18.00;99.90;;;18.43;67.94;94632.34;4988464;28;20923;-59
2023/07/01 03:54:11;;;;;;;8.57;5.53;;;18.00;99.90;;;18.44;67.84;94634.81;4985882;28;20516;-73
2023/07/01 03:56:38;;;;;;;8.63;4.77;;;18.00;99.90;;;18.45;68.26;94636.47;4988877;28;20549;-60
2023/07/01 03:59:06;;;;;;;8.07;4.87;;;18.10;99.90;;;18.49;68.34;94642.22;4986502;28;20586;-72
2023/07/01 04:01:36;;;;;;;4.90;4.50;;;18.10;99.90;;;18.52;68.54;94641.84;4986004;28;20462;-70
2023/07/01 04:04:04;;;;;;;7.43;5.00;;;18.10;99.90;;;18.61;68.54;94642.53;4985283;28;21021;-71
2023/07/01 04:06:31;;;;;;;12.20;5.20;;;18.20;99.90;;;18.69;67.74;94637.03;4986234;28;20895;-59
2023/07/01 04:08:58;;;;;;;19.70;6.60;;;18.20;99.90;;;18.75;68.11;94635.44;4987235;28;20537;-76
2023/07/01 04:11:27;;;;;;;6.10;5.60;;;18.30;99.90;;;18.82;67.50;94636.28;4986980;28;20469;-71
2023/07/01 04:13:54;;;;;;;6.00;5.40;;;18.40;99.90;;;18.89;67.74;94641.69;4987190;28;20451;-58
2023/07/01 04:16:21;;;;;;;9.03;6.03;;;18.40;99.90;;;18.95;67.02;94646.22;4986460;28;20454;-71
2023/07/01 04:18:50;;;;;;;8.90;6.03;;;18.50;99.90;;;18.97;67.46;94642.34;4989158;28;20562;-72
2023/07/01 04:21:17;;;;;;;8.30;5.43;;;18.50;99.90;;;19.03;67.57;94634.59;4992605;28;20479;-59
2023/07/01 04:23:45;;;;;;;19.47;7.10;;;18.60;99.90;;;19.09;67.38;94636.47;4985858;28;21034;-72
2023/07/01 04:26:12;;;;;;;11.33;7.30;;;18.60;99.90;;;19.12;67.22;94636.88;4985944;28;20541;-57
2023/07/01 04:28:39;;;;;;;8.70;6.07;;;18.70;99.90;;;19.15;67.06;94636.47;4987489;28;20469;-59
2023/07/01 04:31:06;;;;;;;12.33;5.70;;;18.70;99.90;;;19.21;66.79;94634.88;4985716;28;21093;-59
2023/07/01 04:33:34;;;;;;;16.03;6.40;;;18.80;99.90;;;19.26;67.04;94637.75;4985245;28;20948;-71
2023/07/01 04:36:02;;;;;;;10.30;6.70;;;18.80;99.90;;;19.30;66.84;94633.69;4985387;28;21016;-58
2023/07/01 04:38:30;;;;;;;10.97;7.07;;;18.90;99.90;;;19.33;66.21;94627.09;4985671;28;20995;-59
2023/07/01 04:40:57;;;;;;;18.93;6.60;;;18.90;99.90;;;19.35;65.90;94631.22;4988384;28;20489;-74
2023/07/01 04:43:25;;;;;;;11.40;6.77;;;18.90;99.90;;;19.38;65.92;94623.84;4988570;28;20844;-73
2023/07/01 04:45:52;;;;;;;11.37;6.20;;;18.90;99.90;;;19.42;66.33;94635.75;4985746;28;20479;-71
2023/07/01 04:48:19;;;;;;;14.60;5.93;;;19.00;99.90;;;19.45;66.68;94635.34;4986520;28;20534;-74
2023/07/01 04:50:47;;;;;;;15.60;7.33;;;19.00;99.90;;;19.48;66.06;94633.09;4986479;28;20485;-58
2023/07/01 04:53:15;;;;;;;8.10;6.20;;;19.00;99.90;;;19.51;66.13;94635.38;4986859;28;20454;-75
2023/07/01 04:55:43;;;;;;;8.57;7.00;;;19.10;99.90;;;19.53;65.37;94638.69;4989471;28;21018;-75
2023/07/01 04:58:10;;;;;;;9.10;7.43;;;19.10;99.90;;;19.55;65.36;94642.97;4990757;28;20998;-73
2023/07/01 05:00:37;;;;;;;22.83;7.03;;;19.10;99.90;;;19.53;64.93;94649.34;4989093;28;20482;-58
2023/07/01 05:03:05;;;;;;;11.23;7.43;;;19.10;99.90;;;19.56;65.84;94655.28;4988709;28;20496;-59
2023/07/01 05:05:32;;;;;;;12.00;7.03;;;19.10;99.90;;;19.61;65.58;94661.69;4990942;28;20489;-73
2023/07/01 05:07:59;;;;;;;26.37;8.70;;;19.20;99.90;;;19.70;66.47;94656.97;4993107;28;20501;-73
2023/07/01 05:10:28;;;;;;;22.87;7.83;;;19.20;99.90;;;19.78;65.76;94650.66;4988349;28;21210;-57
2023/07/01 05:12:56;;;;;;;15.77;7.10;;;19.30;99.90;;;19.88;65.58;94657.25;4985990;28;20462;-74
2023/07/01 05:15:24;;;;;;;10.40;7.03;;;19.40;99.90;;;19.99;65.34;94655.81;4988881;28;20482;-58
2023/07/01 05:17:51;;;;;;;18.83;7.67;;;19.50;99.90;;;20.11;65.52;94649.88;4989785;28;20501;-73
2023/07/01 05:20:18;;;;;;;12.90;8.33;;;19.60;99.90;;;20.24;64.86;94658.72;4984420;28;20470;-74
2023/07/01 05:22:46;;;;;;;31.00;11.90;;;19.70;99.90;;;20.38;64.43;94656.84;4989570;28;20581;-74
2023/07/01 05:25:13;;;;;;;18.13;9.70;;;19.80;99.90;;;20.56;63.89;94663.44;4990716;28;20473;-64
2023/07/01 05:27:41;;;;;;;13.80;9.80;;;20.00;99.90;;;20.74;63.53;94655.66;4994048;28;20459;-74
2023/07/01 05:30:10;;;;;;;15.37;8.17;;;20.10;99.90;;;20.94;62.82;94654.78;4990604;28;20995;-74
2023/07/01 05:32:37;;;;;;;16.47;10.83;;;20.30;99.90;;;21.13;62.81;94658.41;4990394;28;20513;-75
2023/07/01 05:35:05;;;;;;;12.30;10.00;;;20.50;99.90;;;21.31;62.48;94653.19;4988013;28;20475;-75
2023/07/01 05:37:32;;;;;;;13.80;7.80;;;20.70;99.90;;;21.48;62.05;94656.22;4989168;28;20454;-75
2023/07/01 05:40:00;;;;;;;14.87;8.87;;;20.90;99.90;;;21.67;61.44;94656.38;4989230;28;20561;-74
2023/07/01 05:42:27;;;;;;;22.77;8.40;;;21.00;99.90;;;21.89;61.05;94658.72;4989278;28;20890;-59
2023/07/01 05:44:56;;;;;;;13.40;9.40;;;21.30;99.90;;;22.08;60.12;94660.47;4986768;28;20998;-59
2023/07/01 05:47:23;;;;;;;14.03;8.17;;;21.50;99.90;;;22.24;59.54;94651.06;4989229;28;20458;-58
2023/07/01 05:49:50;;;;;;;7.73;6.37;;;21.60;99.90;;;22.39;59.35;94645.41;4988841;28;20486;-58
2023/07/01 05:52:17;;;;;;;10.40;6.60;;;21.80;99.90;;;22.53;58.64;94648.81;4992933;28;20454;-59
2023/07/01 05:54:45;;;;;;;7.77;6.43;;;21.90;99.60;;;22.70;58.30;94652.56;5002845;28;20478;-74
2023/07/01 05:57:12;;;;;;;12.77;6.93;;;22.10;99.40;;;22.90;57.84;94651.56;4993779;28;20474;-60
2023/07/01 05:59:39;;;;;;;7.87;6.63;;;22.30;99.20;;;23.07;57.88;94660.66;4988474;28;20532;-60
2023/07/01 06:02:08;;;;;;;10.20;7.30;;;22.40;98.80;;;23.25;57.34;94662.56;4988098;28;20517;-59
2023/07/01 06:04:35;;;;;;;8.50;6.83;;;22.60;98.30;;;23.45;56.76;94669.53;4989144;28;20494;-73
2023/07/01 06:07:02;;;;;;;22.47;7.13;;;22.80;98.10;;;23.63;56.15;94672.22;4987904;28;20509;-59
2023/07/01 06:09:30;;;;;;;10.43;5.77;;;23.00;97.80;;;23.78;55.70;94663.75;4984853;28;21109;-74
2023/07/01 06:11:57;;;;;;;7.53;6.83;;;23.10;97.30;;;23.92;55.56;94658.22;4988726;28;20466;-74
2023/07/01 06:14:24;;;;;;;10.63;6.60;;;23.30;96.80;;;24.03;54.58;94654.78;4989802;28;20829;-75
2023/07/01 06:16:52;;;;;;;6.70;6.10;;;23.40;96.40;;;24.11;54.24;94662.50;4988897;28;20458;-59
2023/07/01 06:19:20;;;;;;;11.90;6.33;;;23.50;96.00;;;24.26;54.83;94663.94;4987323;28;20508;-75
2023/07/01 06:21:47;;;;;;;9.23;6.67;;;23.60;95.90;;;24.44;54.63;94654.97;4989439;28;20536;-60
2023/07/01 06:24:15;;;;;;;8.27;5.80;;;23.70;95.90;;;24.64;53.86;94643.91;4992265;28;20497;-75
2023/07/01 06:26:43;;;;;;;12.07;5.60;;;23.90;95.70;;;24.85;53.43;94653.28;4989329;28;20465;-59
2023/07/01 06:29:10;;;;;;;8.13;6.60;;;24.10;95.50;;;25.06;53.59;94658.03;4987876;28;20666;-61
2023/07/01 06:31:38;;;;;;;22.27;9.90;;;24.30;95.20;;;25.28;53.40;94659.31;4988621;28;20466;-59
2023/07/01 06:34:12;;;;;;;25.30;14.17;;;24.50;94.80;;;25.44;51.64;94663.16;4983764;28;20970;-60
2023/07/01 06:36:41;;;;;;;22.80;12.90;;;24.70;93.90;;;25.55;51.81;94656.94;4988308;28;20504;-59
2023/07/01 06:39:08;;;;;;;14.50;8.57;;;24.80;93.40;;;25.66;51.60;94658.78;4987675;28;20454;-74
2023/07/01 06:41:35;;;;;;;10.60;6.97;;;24.90;93.30;;;25.82;51.49;94651.81;4990209;28;20884;-76
2023/07/01 06:44:02;;;;;;;9.47;5.23;;;25.10;93.20;;;26.00;50.45;94645.44;4987536;28;20501;-58
2023/07/01 06:46:30;;;;;;;6.80;6.20;;;25.20;92.50;;;26.16;50.27;94654.59;4987400;28;20541;-73
2023/07/01 06:48:57;;;;;;;6.10;5.50;;;25.40;91.80;;;26.22;49.71;94647.44;4987733;28;20469;-75
2023/07/01 06:51:24;;;;;;;12.13;5.97;;;25.50;91.30;;;26.30;49.42;94650.56;4992147;28;20834;-60
2023/07/01 06:53:53;;;;;;;8.90;5.47;;;25.60;90.80;;;26.44;49.35;94653.72;4988553;28;20596;-59
2023/07/01 06:56:20;;;;;;;5.10;4.70;;;25.70;90.90;;;26.60;49.30;94640.50;4983373;28;20536;-62
2023/07/01 06:58:47;;;;;;;17.10;5.40;;;25.90;90.50;;;26.76;48.72;94637.00;4993012;28;20488;-58
2023/07/01 07:01:15;;;;;;;6.27;5.13;;;26.00;90.10;;;26.93;47.67;94641.56;4990166;28;20917;-75
2023/07/01 07:03:42;;;;;;;5.50;5.00;;;26.10;88.10;;;27.07;48.00;94642.84;4985592;28;20485;-75
2023/07/01 07:06:09;;;;;;;7.13;5.40;;;26.30;88.30;;;27.25;47.68;94638.22;4987590;28;20466;-76
2023/07/01 07:08:37;;;;;;;9.23;4.93;;;26.50;87.80;;;27.41;46.61;94639.28;4987860;28;20461;-77
2023/07/01 07:11:06;;;;;;;6.67;5.50;;;26.70;85.70;;;27.45;46.76;94637.69;4988607;28;20833;-75
2023/07/01 07:13:33;;;;;;;8.77;5.60;;;26.70;85.10;;;27.53;46.81;94629.97;4987604;28;20457;-60
2023/07/01 07:16:00;;;;;;;9.70;5.00;;;26.80;84.90;;;27.61;46.19;94630.59;4990680;28;20470;-60
2023/07/01 07:18:28;;;;;;;6.80;5.53;;;26.90;83.50;;;27.57;45.89;94622.16;4989383;28;20457;-59
2023/07/01 07:20:55;;;;;;;6.03;5.00;;;26.90;82.70;;;27.62;45.91;94618.69;4985944;28;20482;-75
2023/07/01 07:23:23;;;;;;;7.47;5.43;;;26.90;82.00;;;27.59;45.60;94619.22;4988203;28;20477;-59
2023/07/01 07:25:50;;;;;;;9.27;5.80;;;26.90;81.60;;;27.53;46.11;94618.34;4987970;28;20470;-75
2023/07/01 07:28:19;;;;;;;6.17;5.70;;;26.80;81.50;;;27.49;46.06;94612.63;4987101;28;20454;-60
2023/07/01 07:30:47;;;;;;;13.93;5.87;;;26.80;82.00;;;27.54;46.62;94610.00;4987741;28;20478;-75
2023/07/01 07:33:14;;;;;;;16.07;8.47;;;26.80;83.10;;;27.71;46.79;94617.19;4988049;28;20454;-60
2023/07/01 07:35:41;;;;;;;15.13;8.40;;;26.90;83.40;;;27.95;46.96;94611.47;4987333;28;20711;-59
2023/07/01 07:38:08;;;;;;;19.67;6.80;;;27.10;83.40;;;28.20;45.77;94609.06;4987064;28;20528;-58
2023/07/01 07:40:36;;;;;;;20.57;5.83;;;27.40;82.70;;;28.47;46.28;94605.47;4986716;28;20501;-61
2023/07/01 07:43:09;;;;;;;6.33;5.80;;;27.60;82.30;;;28.73;45.73;94613.84;4987312;28;20454;-60
2023/07/01 07:45:38;;;;;;;12.30;5.70;;;27.90;80.90;;;28.85;44.93;94610.94;4986281;28;20599;-75
2023/07/01 07:48:06;;;;;;;48.60;31.83;;;28.00;79.10;;;28.87;44.90;94601.47;4986547;28;20454;-59
2023/07/01 07:50:33;;;;;;;9.90;6.30;;;28.20;78.60;;;28.97;44.44;94601.53;4989523;28;20462;-75
2023/07/01 07:53:01;;;;;;;6.57;5.87;;;28.30;77.80;;;29.13;44.27;94601.63;5003931;28;20454;-74
2023/07/01 07:55:33;;;;;;;33.80;7.10;;;28.40;78.40;;;29.32;44.79;94602.00;4987667;28;20869;-76
2023/07/01 07:58:00;;;;;;;6.77;6.17;;;28.60;78.80;;;29.49;43.43;94596.38;4987623;28;20198;-74
2023/07/01 08:00:28;;;;;;;5.97;5.40;;;28.70;76.60;;;29.53;43.03;94600.19;4990105;28;20532;-75
2023/07/01 08:02:56;;;;;;;6.23;5.70;;;28.80;75.80;;;29.56;42.99;94599.66;4986784;28;20671;-76
2023/07/01 08:05:26;;;;;;;11.43;5.80;;;28.80;75.00;;;29.67;43.79;94597.81;4987806;28;20501;-58
2023/07/01 08:07:53;;;;;;;7.50;6.50;;;28.90;75.10;;;29.82;43.25;94591.63;4989108;28;20269;-76
2023/07/01 08:10:20;;;;;;;18.53;6.03;;;29.00;75.20;;;30.01;42.93;94587.31;4987943;28;20233;-76
2023/07/01 08:12:48;;;;;;;6.90;6.23;;;29.20;74.90;;;30.27;42.57;94584.66;4988871;28;20742;-75
2023/07/01 08:15:15;;;;;;;5.83;5.33;;;29.40;74.50;;;30.44;42.40;94589.00;4987827;28;20231;-59
2023/07/01 08:17:42;;;;;;;21.07;5.77;;;29.60;73.60;;;30.57;42.05;94583.84;4987857;28;20210;-58
2023/07/01 08:20:12;;;;;;;9.03;5.93;;;29.80;72.80;;;30.65;42.05;94570.81;4987402;28;20612;-76
2023/07/01 08:22:40;;;;;;;8.17;6.67;;;29.90;72.30;;;30.64;41.93;94578.13;4984894;28;20683;-74
2023/07/01 08:25:08;;;;;;;7.80;6.63;;;29.90;71.80;;;30.58;41.72;94571.06;4986529;28;20723;-75
2023/07/01 08:27:35;;;;;;;6.20;5.70;;;29.80;70.70;;;30.58;41.56;94571.06;4986421;28;20367;-75
2023/07/01 08:30:03;;;;;;;14.63;5.67;;;29.80;70.50;;;30.70;40.87;94579.75;4987572;28;20297;-75
2023/07/01 08:32:30;;;;;;;8.63;6.37;;;30.00;70.20;;;30.80;40.81;94573.50;4988437;28;20294;-74
2023/07/01 08:34:57;;;;;;;6.93;5.27;;;30.10;69.30;;;30.84;40.87;94573.75;4991396;28;20215;-73
2023/07/01 08:37:27;;;;;;;17.00;6.03;;;30.10;68.70;;;30.89;39.72;94573.72;4988257;28;20674;-59
2023/07/01 08:39:54;;;;;;;6.93;6.23;;;30.20;67.80;;;30.95;40.40;94571.81;4988421;28;20418;-75
2023/07/01 08:42:24;;;;;;;5.57;5.07;;;30.20;67.80;;;31.05;40.29;94575.34;4986453;28;20199;-59
2023/07/01 08:44:51;;;;;;;7.27;5.70;;;30.30;67.50;;;31.09;40.10;94568.28;4989403;28;20761;-59
2023/07/01 08:47:19;;;;;;;6.00;5.53;;;30.40;66.10;;;31.10;39.29;94574.53;4986211;28;20269;-59
2023/07/01 08:49:47;;;;;;;10.17;8.07;;;30.40;65.20;;;31.07;39.54;94566.94;4988599;28;20779;-75
2023/07/01 08:52:15;;;;;;;14.00;9.23;;;30.40;65.00;;;31.04;38.71;94562.84;4989206;28;20647;-76
2023/07/01 08:54:43;;;;;;;6.80;5.13;;;30.40;64.30;;;31.09;39.48;94560.16;4989307;28;20234;-59
2023/07/01 08:57:11;;;;;;;7.33;5.37;;;30.50;64.80;;;31.33;39.25;94558.69;4988732;28;20289;-75
2023/07/01 08:59:38;;;;;;;11.93;5.68;;;30.60;64.80;;;31.60;39.04;94563.75;4989223;28;20249;-74
2023/07/01 09:02:07;;;;;;;5.93;5.13;;;30.80;64.20;;;31.90;38.93;94556.50;4988486;28;20218;-58
2023/07/01 09:04:35;;;;;;;6.43;5.97;;;31.10;64.40;;;32.17;38.66;94551.44;4990200;28;20720;-59
2023/07/01 09:07:02;;;;;;;6.65;5.80;;;31.30;63.90;;;32.48;38.52;94555.81;4990289;28;20226;-70
2023/07/01 09:09:29;;;;;;;8.00;5.28;;;31.60;63.40;;;32.74;38.14;94550.19;4988475;28;20230;-61
2023/07/01 09:11:58;;;;;;;9.77;5.95;;;31.90;62.70;;;32.86;37.96;94545.94;4997609;28;20294;-74
2023/07/01 09:14:26;;;;;;;5.15;4.65;;;32.10;61.00;;;32.88;37.18;94542.94;4998100;28;20285;-80
2023/07/01 09:16:53;;;;;;;10.02;6.10;;;32.10;60.40;;;32.94;37.45;94533.59;4988731;28;20218;-59
2023/07/01 09:19:22;;;;;;;5.68;5.28;;;32.20;60.50;;;33.08;36.85;94533.72;4991149;28;20658;-79
2023/07/01 09:21:49;;;;;;;6.28;4.90;;;32.30;59.80;;;33.08;36.00;94533.72;4989581;28;20195;-58
2023/07/01 09:24:16;;;;;;;7.15;5.43;;;32.40;58.70;;;32.97;35.92;94524.03;4988606;28;20737;-60
2023/07/01 09:26:44;;;;;;;5.72;5.15;;;32.30;57.90;;;32.89;36.48;94520.06;4989485;28;20198;-60
2023/07/01 09:29:15;;;;;;;12.82;5.82;;;32.20;58.40;;;32.84;36.49;94517.38;4986994;28;20273;-59
2023/07/01 09:31:47;;;;;;;7.75;5.55;;;32.20;59.00;;;32.92;36.69;94515.91;4987759;28;20210;-74
2023/07/01 09:34:15;;;;;;;6.82;6.22;;;32.10;59.20;;;33.04;36.69;94513.59;4988167;28;20667;-73
2023/07/01 09:36:42;;;;;;;6.18;5.55;;;32.20;58.80;;;33.10;36.40;94512.44;4988389;28;20234;-65
2023/07/01 09:39:10;;;;;;;7.32;4.63;;;32.40;58.50;;;33.18;36.63;94517.25;4990982;28;20234;-72
2023/07/01 09:41:37;;;;;;;6.97;5.40;;;32.40;58.60;;;33.25;36.73;94503.31;4990074;28;20207;-74
2023/07/01 09:44:18;;;;;;;9.38;5.88;;;32.50;58.20;;;33.34;35.90;94500.72;4988302;28;20207;-59
2023/07/01 09:46:50;;;;;;;14.07;7.22;;;32.50;57.90;;;33.48;35.79;94500.81;4985747;28;20904;-76
2023/07/01 09:49:18;;;;;;;14.88;7.38;;;32.70;58.10;;;33.62;36.18;94490.81;4988478;28;20238;-61
2023/07/01 09:51:49;;;;;;;9.32;5.78;;;32.80;57.70;;;33.74;35.97;94496.66;4993336;28;20202;-74
2023/07/01 09:54:27;;;;;;;9.77;6.55;;;32.90;57.00;;;33.83;35.17;94485.88;4987319;28;20573;-74
2023/07/01 09:56:56;;;;;;;5.95;5.35;;;33.10;56.40;;;33.86;35.16;94479.00;4985387;28;20195;-70
2023/07/01 09:59:24;;;;;;;10.02;6.05;;;33.10;56.50;;;33.73;35.45;94475.13;4992131;28;20290;-75
2023/07/01 10:01:55;;;;;;;8.40;6.07;;;33.00;56.10;;;33.63;35.51;94480.69;4988102;28;20301;-75
2023/07/01 10:04:25;;;;;;;8.20;5.90;;;32.90;56.80;;;33.66;35.21;94475.44;4989162;28;20235;-75
2023/07/01 10:06:54;;;;;;;7.70;5.72;;;32.90;56.10;;;33.72;35.19;94473.50;4991545;28;20284;-77
2023/07/01 10:09:23;;;;;;;5.57;5.05;;;32.90;56.20;;;33.60;34.58;94471.19;4984799;28;20254;-61
2023/07/01 10:11:52;;;;;;;12.32;6.63;;;32.90;55.60;;;33.32;34.79;94475.66;4990210;28;20199;-74
2023/07/01 10:14:20;;;;;;;15.20;7.45;;;32.70;55.30;;;33.14;35.55;94463.59;4989674;28;20230;-61
2023/07/01 10:16:49;;;;;;;8.02;6.18;;;32.40;55.70;;;33.15;36.17;94457.84;4987479;28;20210;-75
2023/07/01 10:19:29;;;;;;;9.43;6.22;;;32.40;57.00;;;33.24;34.97;94452.59;4989492;28;20222;-73
2023/07/01 10:22:25;;;;;;;7.50;5.53;;;32.40;55.60;;;33.26;35.75;94455.03;4985492;28;20199;-76